Ernest, Pennsylvania
Current Conditions -  °F | °C
As of 6:15 AM on Wednesday 26 Nov 2014 (Local Time) from KIDI Reporting Station
Overcast Overcast  
Wind Chill: 27°   Ceiling: 11000
Heat Index: 32°   Visibility: 10mi
Dew Point: 25°   Wind: 5mph
Humidity: 75%   Direction: 100°E
Pressure: 30.09"   Gusts: NA
Location:  40.68°N, 79.16°W
Report Text: KIDI 261115Z AUTO 10004KT 10SM SCT075 OVC110 00/M04 A3009 RMK A01
Loading
Personal Weather Stations






























Interactive Weather Map New forecast layout! Learn more

10-Day Weather Forecast

Advertisements
Track Severe Weather on mobile